Alburnett, Iowa
Current Conditions -  °F | °C
As of 12:52 AM on Thursday 27 Nov 2014 (Local Time) from KCID Reporting Station
Overcast Overcast  
Wind Chill: -10°   Ceiling: 2400
Heat Index: -4°   Visibility: 10mi
Dew Point: -6°   Wind: 10mph
Humidity: 91%   Direction: 320°NW
Pressure: 30.3"   Gusts: NA
Location:  42.15°N, 91.62°W
Report Text: KCID 270652Z AUTO 32009KT 10SM SCT014 BKN024 OVC100 M04/M06 A3030 RMK AO2 SLP272 T10441056
Loading
Personal Weather Stations






























Interactive Weather Map New forecast layout! Learn more

10-Day Weather Forecast

Advertisements
Track Severe Weather on mobile